createdAt,value
2019-04-01T10:34:39.809Z,10.47
2019-04-01T10:37:06.895Z,10.97
2019-04-01T10:39:33.959Z,10.90
2019-04-01T10:42:01.193Z,10.53
2019-04-01T10:44:30.865Z,11.20
2019-04-01T10:46:58.022Z,11.27
2019-04-01T10:49:25.151Z,11.27
2019-04-01T10:52:35.375Z,11.20
2019-04-01T10:55:02.804Z,11.47
2019-04-01T10:57:30.066Z,11.33
2019-04-01T10:59:57.201Z,12.43
2019-04-01T11:03:06.024Z,11.10
2019-04-01T11:05:32.208Z,11.30
2019-04-01T11:07:59.333Z,11.77
2019-04-01T11:10:26.503Z,11.17
2019-04-01T11:12:53.982Z,11.90
2019-04-01T11:15:21.540Z,11.80
2019-04-01T11:17:52.002Z,12.17
2019-04-01T11:20:17.811Z,12.53
2019-04-01T11:22:44.871Z,13.47
2019-04-01T11:25:12.296Z,12.67
2019-04-01T11:27:39.458Z,12.67
2019-04-01T11:30:07.787Z,12.63
2019-04-01T11:32:35.451Z,12.93
2019-04-01T11:35:04.564Z,12.43
2019-04-01T11:37:31.611Z,12.97
2019-04-01T11:39:58.800Z,12.40
2019-04-01T11:42:25.897Z,11.90
2019-04-01T11:44:53.007Z,13.50
2019-04-01T11:47:22.356Z,13.13
2019-04-01T11:49:52.474Z,12.47
2019-04-01T11:52:19.694Z,12.47
2019-04-01T11:54:46.819Z,12.73
2019-04-01T11:57:13.933Z,13.03
2019-04-01T11:59:41.009Z,13.50
2019-04-01T12:02:09.189Z,12.47
2019-04-01T12:04:36.347Z,13.17
2019-04-01T12:07:03.401Z,12.90
2019-04-01T12:09:30.435Z,12.87
2019-04-01T12:11:57.528Z,13.80
2019-04-01T12:14:24.608Z,13.00
2019-04-01T12:16:51.742Z,14.50
2019-04-01T12:19:20.562Z,15.00
2019-04-01T12:21:47.620Z,14.90
2019-04-01T12:24:14.671Z,14.27
2019-04-01T12:26:41.777Z,13.70
2019-04-01T12:29:11.849Z,13.77
2019-04-01T12:31:37.796Z,12.80
2019-04-01T12:34:05.123Z,14.13
2019-04-01T12:36:32.253Z,13.67
2019-04-01T12:38:59.345Z,13.30
2019-04-01T12:41:26.538Z,13.97
2019-04-01T12:43:53.579Z,14.47
2019-04-01T12:46:20.659Z,13.50
2019-04-01T12:48:47.754Z,13.87
2019-04-01T12:51:14.815Z,13.53
2019-04-01T12:54:20.521Z,13.87
2019-04-01T12:56:47.583Z,12.70
2019-04-01T12:59:14.673Z,12.10
2019-04-01T13:01:42.021Z,12.43
2019-04-01T13:04:09.221Z,11.93
2019-04-01T13:06:36.274Z,13.53
2019-04-01T13:09:05.578Z,12.83
2019-04-01T13:11:32.612Z,12.50
2019-04-01T13:13:59.705Z,12.17
2019-04-01T13:16:26.782Z,12.00
2019-04-01T13:18:53.825Z,11.93
2019-04-01T13:21:20.936Z,11.17
2019-04-01T13:23:48.189Z,11.43
2019-04-01T13:26:15.284Z,11.87
2019-04-01T13:28:42.614Z,12.17
2019-04-01T13:31:09.817Z,12.33
2019-04-01T13:33:39.708Z,11.63
2019-04-01T13:36:07.979Z,12.00
2019-04-01T13:38:35.229Z,11.23
2019-04-01T13:41:02.715Z,11.47
2019-04-01T13:43:29.805Z,11.30
2019-04-01T13:45:56.973Z,11.97
2019-04-01T13:48:24.050Z,11.33
2019-04-01T13:50:51.103Z,11.97
2019-04-01T13:53:18.296Z,10.50
2019-04-01T13:55:45.391Z,10.40
2019-04-01T13:58:57.514Z,11.00
2019-04-01T14:01:25.557Z,12.47
2019-04-01T14:03:53.567Z,11.53
2019-04-01T14:06:20.686Z,12.50
2019-04-01T14:08:47.793Z,11.70
2019-04-01T14:11:14.887Z,11.80
2019-04-01T14:13:42.019Z,12.27
2019-04-01T14:16:09.260Z,11.10
2019-04-01T14:18:36.628Z,10.87
2019-04-01T14:21:15.257Z,10.70
2019-04-01T14:23:32.710Z,11.30
2019-04-01T14:25:59.859Z,12.43
2019-04-01T14:28:28.836Z,11.13
2019-04-01T14:30:56.037Z,10.93
2019-04-01T14:33:23.126Z,11.70
2019-04-01T14:35:50.228Z,11.87
2019-04-01T14:38:17.484Z,11.40
2019-04-01T14:40:44.568Z,11.63
2019-04-01T14:43:11.907Z,10.87
2019-04-01T14:45:39.012Z,11.37
2019-04-01T14:48:08.355Z,11.70
2019-04-01T14:50:35.086Z,11.37
2019-04-01T14:53:02.215Z,11.23
2019-04-01T14:55:29.383Z,12.77
2019-04-01T14:58:00.321Z,11.13
2019-04-01T15:00:27.163Z,12.27
2019-04-01T15:02:54.226Z,11.33
2019-04-01T15:05:21.395Z,10.67
2019-04-01T15:07:48.470Z,11.07
2019-04-01T15:10:15.712Z,11.13
2019-04-01T15:12:42.755Z,11.57
2019-04-01T15:15:09.960Z,12.67
2019-04-01T15:17:37.190Z,11.03
2019-04-01T15:20:05.180Z,12.83
2019-04-01T15:22:32.246Z,11.97
2019-04-01T15:24:59.407Z,12.27
2019-04-01T15:27:26.558Z,11.37
2019-04-01T15:29:53.651Z,11.57
2019-04-01T15:32:59.405Z,11.57
2019-04-01T15:35:26.555Z,12.80
2019-04-01T15:37:53.628Z,11.27
2019-04-01T15:40:21.037Z,12.10
2019-04-01T15:42:48.111Z,11.90
2019-04-01T15:45:15.194Z,11.07
2019-04-01T15:47:43.306Z,11.97
2019-04-01T15:50:10.458Z,12.67
2019-04-01T15:52:37.531Z,11.43
2019-04-01T15:55:06.922Z,12.40
2019-04-01T15:57:34.172Z,11.90
2019-04-01T16:00:01.236Z,12.13
2019-04-01T16:02:28.427Z,11.07
2019-04-01T16:04:55.509Z,12.07
2019-04-01T16:07:22.683Z,12.10
2019-04-01T16:09:49.727Z,12.37
2019-04-01T16:12:16.820Z,12.23
2019-04-01T16:14:43.893Z,12.50
2019-04-01T16:17:10.951Z,11.50
2019-04-01T16:19:38.027Z,11.53
2019-04-01T16:22:05.153Z,12.60
2019-04-01T16:24:32.221Z,11.63
2019-04-01T16:26:59.310Z,12.57
2019-04-01T16:29:26.378Z,11.77
2019-04-01T16:31:55.360Z,12.23
2019-04-01T16:34:22.637Z,11.70
2019-04-01T16:36:49.788Z,12.20
2019-04-01T16:39:16.906Z,11.80
2019-04-01T16:42:02.227Z,11.47
2019-04-01T16:44:30.048Z,11.90
2019-04-01T16:46:57.111Z,12.50
2019-04-01T16:49:24.215Z,11.53
2019-04-01T16:51:51.258Z,11.67
2019-04-01T16:54:18.325Z,12.17
2019-04-01T16:56:46.483Z,12.00
2019-04-01T16:59:13.570Z,12.23
2019-04-01T17:01:41.667Z,11.77
2019-04-01T17:04:09.106Z,11.67
2019-04-01T17:06:36.680Z,11.80
2019-04-01T17:09:06.032Z,11.50
2019-04-01T17:11:37.942Z,12.07
2019-04-01T17:14:05.099Z,12.20
2019-04-01T17:16:32.185Z,12.67
2019-04-01T17:18:59.290Z,11.67
2019-04-01T17:21:26.355Z,11.50
2019-04-01T17:23:53.430Z,11.03
2019-04-01T17:26:20.485Z,11.63
2019-04-01T17:29:31.925Z,10.83
2019-04-01T17:31:59.318Z,11.90
2019-04-01T17:34:26.412Z,10.80
2019-04-01T17:36:53.606Z,10.87
2019-04-01T17:39:20.701Z,11.80
2019-04-01T17:41:48.806Z,10.77
2019-04-01T17:44:15.903Z,12.20
2019-04-01T17:46:42.966Z,11.20
2019-04-01T17:49:10.130Z,10.97
2019-04-01T17:51:38.604Z,12.13
2019-04-01T17:54:05.677Z,11.17
2019-04-01T17:56:34.651Z,11.07
2019-04-01T17:59:01.852Z,10.90
2019-04-01T18:01:31.609Z,10.23
2019-04-01T18:03:58.807Z,10.73
2019-04-01T18:06:25.969Z,10.57
2019-04-01T18:08:53.069Z,10.47
2019-04-01T18:11:20.373Z,9.93
2019-04-01T18:13:47.472Z,9.93
2019-04-01T18:16:14.691Z,9.37
2019-04-01T18:18:41.818Z,10.67
2019-04-01T18:21:08.917Z,9.77
2019-04-01T18:23:36.014Z,9.37
2019-04-01T18:26:03.049Z,9.77
2019-04-01T18:28:30.111Z,9.97
2019-04-01T18:30:57.196Z,9.47
2019-04-01T18:33:24.322Z,9.87
2019-04-01T18:35:51.502Z,10.73
2019-04-01T18:38:18.568Z,9.17
2019-04-01T18:40:45.696Z,10.37
2019-04-01T18:43:16.342Z,10.70
2019-04-01T18:45:44.517Z,10.27
2019-04-01T18:48:14.388Z,10.37
2019-04-01T18:50:40.911Z,11.00
2019-04-01T18:53:08.060Z,9.77
2019-04-01T18:55:37.893Z,10.03
2019-04-01T18:58:05.087Z,9.43
2019-04-01T19:00:32.503Z,8.87
2019-04-01T19:02:59.764Z,9.80
2019-04-01T19:05:26.962Z,9.40
2019-04-01T19:07:54.073Z,9.47
2019-04-01T19:10:21.291Z,10.03
2019-04-01T19:12:48.339Z,10.20
2019-04-01T19:15:18.695Z,9.30
2019-04-01T19:17:46.077Z,9.93
2019-04-01T19:20:13.600Z,8.87
2019-04-01T19:22:40.696Z,9.67
2019-04-01T19:25:14.553Z,8.73
2019-04-01T19:27:41.693Z,9.40
2019-04-01T19:30:09.871Z,9.23
2019-04-01T19:32:45.479Z,10.30
2019-04-01T19:35:14.547Z,9.70
2019-04-01T19:37:41.650Z,9.73
2019-04-01T19:40:09.355Z,9.30
2019-04-01T19:42:39.334Z,9.33
2019-04-01T19:45:05.954Z,10.03
2019-04-01T19:47:33.035Z,9.57
2019-04-01T19:50:00.158Z,9.33
2019-04-01T19:52:27.255Z,10.50
2019-04-01T19:54:54.379Z,10.87
2019-04-01T19:57:23.420Z,9.90
2019-04-01T19:59:50.642Z,8.40
2019-04-01T20:02:17.838Z,9.33
2019-04-01T20:04:44.948Z,9.03
2019-04-01T20:07:13.627Z,9.00
2019-04-01T20:09:41.182Z,9.80
2019-04-01T20:12:08.556Z,9.20
2019-04-01T20:14:35.824Z,9.00
2019-04-01T20:17:03.869Z,7.93
2019-04-01T20:19:31.029Z,9.13
2019-04-01T20:21:58.228Z,9.63
2019-04-01T20:24:25.424Z,8.87
2019-04-01T20:26:52.843Z,7.90
2019-04-01T20:29:19.904Z,9.13
2019-04-01T20:31:47.168Z,8.07
2019-04-01T20:34:19.916Z,9.10
2019-04-01T20:36:44.453Z,8.03
2019-04-01T20:39:11.776Z,8.80
2019-04-01T20:41:38.951Z,10.40
2019-04-01T20:44:06.056Z,6.93
2019-04-01T20:46:33.370Z,7.67
2019-04-01T20:49:01.263Z,8.23
2019-04-01T20:51:29.522Z,8.17
2019-04-01T20:53:57.021Z,7.60
2019-04-01T20:56:24.158Z,9.10
2019-04-01T20:58:51.345Z,9.50
2019-04-01T21:01:18.438Z,9.97
2019-04-01T21:03:46.273Z,9.30
2019-04-01T21:06:13.365Z,9.00
2019-04-01T21:08:40.543Z,8.60
2019-04-01T21:11:07.687Z,8.73
2019-04-01T21:13:35.174Z,8.93
2019-04-01T21:16:03.385Z,10.17
2019-04-01T21:18:30.523Z,9.53
2019-04-01T21:20:57.619Z,9.00
2019-04-01T21:23:24.828Z,8.27
2019-04-01T21:25:51.941Z,10.70
2019-04-01T21:28:19.091Z,11.10
2019-04-01T21:30:46.871Z,10.13
2019-04-01T21:33:14.389Z,10.80
2019-04-01T21:35:41.728Z,11.87
2019-04-01T21:38:09.360Z,13.07
2019-04-01T21:40:36.531Z,10.57
2019-04-01T21:43:05.393Z,11.03
2019-04-01T21:45:32.923Z,10.30
2019-04-01T21:48:00.171Z,10.50
2019-04-01T21:50:29.537Z,9.27
2019-04-01T21:52:56.518Z,8.93
2019-04-01T21:55:25.225Z,9.17
2019-04-01T21:57:52.527Z,8.90
2019-04-01T22:00:38.300Z,10.40
2019-04-01T22:03:05.847Z,11.33
2019-04-01T22:05:33.015Z,9.63
2019-04-01T22:08:00.550Z,11.90
2019-04-01T22:10:27.741Z,9.83
2019-04-01T22:12:55.381Z,9.53
2019-04-01T22:15:24.929Z,9.93
2019-04-01T22:17:52.019Z,8.87
2019-04-01T22:20:19.097Z,9.60
2019-04-01T22:22:46.199Z,10.60
2019-04-01T22:25:13.298Z,9.63
2019-04-01T22:27:40.373Z,7.10
2019-04-01T22:30:08.093Z,8.37
2019-04-01T22:32:35.614Z,9.40
2019-04-01T22:35:05.179Z,8.63
2019-04-01T22:37:32.053Z,11.90
2019-04-01T22:39:59.123Z,10.50
2019-04-01T22:42:27.160Z,10.30
2019-04-01T22:44:54.494Z,9.50
2019-04-01T22:47:24.231Z,10.07
2019-04-01T22:49:50.574Z,9.93
2019-04-01T22:52:17.642Z,8.90
2019-04-01T22:54:44.729Z,10.40
2019-04-01T22:57:11.787Z,10.20
2019-04-01T22:59:38.877Z,9.30
2019-04-01T23:02:06.051Z,10.17
2019-04-01T23:04:33.168Z,10.13
2019-04-01T23:07:00.284Z,10.70
2019-04-01T23:09:29.458Z,10.90
2019-04-01T23:11:56.515Z,9.77
2019-04-01T23:14:23.611Z,11.43
2019-04-01T23:16:52.746Z,10.43
2019-04-01T23:19:19.821Z,10.80
2019-04-01T23:21:46.882Z,10.80
2019-04-01T23:24:13.943Z,11.57
2019-04-01T23:26:41.351Z,11.30
2019-04-01T23:29:08.538Z,11.30
2019-04-01T23:31:38.286Z,9.73
2019-04-01T23:34:05.650Z,9.97
2019-04-01T23:36:32.849Z,9.97
2019-04-01T23:38:59.987Z,11.10
2019-04-01T23:41:27.042Z,12.17
2019-04-01T23:43:55.050Z,14.40
2019-04-01T23:46:22.260Z,13.17
2019-04-01T23:48:49.349Z,10.37
2019-04-01T23:51:16.536Z,10.10
2019-04-01T23:53:43.594Z,12.07
2019-04-01T23:56:10.645Z,11.80
2019-04-01T23:58:37.725Z,11.73
